Terminal Aerodrome Forecast
Issued by NWS

Home | Current Version | Previous Version | Text Only | Print | Product List | Glossary On
Versions: 1 2 3 4 5 6 7 8 9 10 11 12 13 14 15 16 17 18 19 20 21 22 23 24 25
000
FTUS42 KFFC 171100
TAFFTY
TAF
KFTY 171126Z 1712/1812 08007KT P6SM SCT040
     FM171500 10010G18KT P6SM SCT040 BKN250
     FM180200 09007KT P6SM BKN035
     FM181000 07007KT P6SM BKN025=

USA.gov is the U.S. government's official web portal to all federal, state and local government web resources and services.